sensor_id;sensor_type;location;lat;lon;timestamp;pressure;altitude;pressure_sealevel;temperature;humidity
68871;BME280;55906;52.278;6.808;2023-05-24T00:02:05;102286.22;;;10.59;64.01
68871;BME280;55906;52.278;6.808;2023-05-24T00:04:32;102276.63;;;10.60;63.66
68871;BME280;55906;52.278;6.808;2023-05-24T00:06:58;102280.00;;;10.57;64.32
68871;BME280;55906;52.278;6.808;2023-05-24T00:09:27;102276.38;;;10.55;63.70
68871;BME280;55906;52.278;6.808;2023-05-24T00:11:55;102276.25;;;10.52;64.71
68871;BME280;55906;52.278;6.808;2023-05-24T00:14:22;102279.69;;;10.51;64.40
68871;BME280;55906;52.278;6.808;2023-05-24T00:16:48;102273.25;;;10.44;64.55
68871;BME280;55906;52.278;6.808;2023-05-24T00:19:15;102267.06;;;10.44;64.61
68871;BME280;55906;52.278;6.808;2023-05-24T00:21:42;102262.56;;;10.41;64.56
68871;BME280;55906;52.278;6.808;2023-05-24T00:24:09;102260.50;;;10.36;65.48
68871;BME280;55906;52.278;6.808;2023-05-24T00:26:36;102263.06;;;10.34;64.84
68871;BME280;55906;52.278;6.808;2023-05-24T00:29:04;102263.88;;;10.33;65.43
68871;BME280;55906;52.278;6.808;2023-05-24T00:31:31;102258.41;;;10.29;65.18
68871;BME280;55906;52.278;6.808;2023-05-24T00:33:58;102261.69;;;10.24;65.40
68871;BME280;55906;52.278;6.808;2023-05-24T00:36:24;102262.53;;;10.23;65.24
68871;BME280;55906;52.278;6.808;2023-05-24T00:38:51;102256.09;;;10.18;65.99
68871;BME280;55906;52.278;6.808;2023-05-24T00:41:18;102247.16;;;10.15;65.90
68871;BME280;55906;52.278;6.808;2023-05-24T00:43:44;102248.88;;;10.14;66.29
68871;BME280;55906;52.278;6.808;2023-05-24T00:46:15;102251.44;;;10.13;66.28
68871;BME280;55906;52.278;6.808;2023-05-24T00:48:44;102246.03;;;10.10;65.81
68871;BME280;55906;52.278;6.808;2023-05-24T00:51:11;102252.88;;;10.06;65.98
68871;BME280;55906;52.278;6.808;2023-05-24T00:53:39;102257.97;;;10.03;66.54
68871;BME280;55906;52.278;6.808;2023-05-24T00:56:07;102257.91;;;10.02;66.34
68871;BME280;55906;52.278;6.808;2023-05-24T00:58:34;102249.84;;;9.99;66.99
68871;BME280;55906;52.278;6.808;2023-05-24T01:01:02;102247.16;;;9.97;66.80
68871;BME280;55906;52.278;6.808;2023-05-24T01:03:30;102241.75;;;9.94;66.82
68871;BME280;55906;52.278;6.808;2023-05-24T01:06:00;102248.66;;;9.92;67.31
68871;BME280;55906;52.278;6.808;2023-05-24T01:11:27;102250.88;;;9.84;68.02
68871;BME280;55906;52.278;6.808;2023-05-24T01:14:04;102244.81;;;9.85;68.05
68871;BME280;55906;52.278;6.808;2023-05-24T01:16:40;102250.88;;;9.84;68.57
68871;BME280;55906;52.278;6.808;2023-05-24T01:19:26;102251.78;;;9.85;68.81
68871;BME280;55906;52.278;6.808;2023-05-24T01:22:05;102258.69;;;9.83;68.01
68871;BME280;55906;52.278;6.808;2023-05-24T01:24:40;102249.75;;;9.79;67.56
68871;BME280;55906;52.278;6.808;2023-05-24T01:34:15;102259.88;;;9.72;70.59
68871;BME280;55906;52.278;6.808;2023-05-24T01:36:41;102251.91;;;9.70;68.86
68871;BME280;55906;52.278;6.808;2023-05-24T01:39:08;102243.94;;;9.69;68.79
68871;BME280;55906;52.278;6.808;2023-05-24T01:41:39;102257.91;;;9.68;69.32
68871;BME280;55906;52.278;6.808;2023-05-24T01:44:15;102250.75;;;9.65;69.45
68871;BME280;55906;52.278;6.808;2023-05-24T01:46:46;102243.69;;;9.64;69.38
68871;BME280;55906;52.278;6.808;2023-05-24T01:49:21;102246.50;;;9.67;69.75
68871;BME280;55906;52.278;6.808;2023-05-24T01:51:50;102235.97;;;9.67;68.66
68871;BME280;55906;52.278;6.808;2023-05-24T01:54:20;102247.41;;;9.68;69.03
68871;BME280;55906;52.278;6.808;2023-05-24T01:56:51;102245.59;;;9.67;69.74
68871;BME280;55906;52.278;6.808;2023-05-24T01:59:19;102245.50;;;9.65;69.89
68871;BME280;55906;52.278;6.808;2023-05-24T02:01:47;102244.69;;;9.66;69.41
68871;BME280;55906;52.278;6.808;2023-05-24T02:04:14;102241.06;;;9.64;70.20
68871;BME280;55906;52.278;6.808;2023-05-24T02:06:43;102234.09;;;9.65;69.99
68871;BME280;55906;52.278;6.808;2023-05-24T02:09:09;102235.06;;;9.67;69.58
68871;BME280;55906;52.278;6.808;2023-05-24T02:11:36;102237.72;;;9.67;69.65
68871;BME280;55906;52.278;6.808;2023-05-24T02:14:02;102241.97;;;9.65;70.63
68871;BME280;55906;52.278;6.808;2023-05-24T02:16:29;102239.59;;;9.69;70.02
68871;BME280;55906;52.278;6.808;2023-05-24T02:18:56;102231.63;;;9.68;70.19
68871;BME280;55906;52.278;6.808;2023-05-24T02:21:22;102232.69;;;9.71;70.19
68871;BME280;55906;52.278;6.808;2023-05-24T02:23:51;102227.44;;;9.71;70.47
68871;BME280;55906;52.278;6.808;2023-05-24T02:26:18;102227.28;;;9.68;71.07
68871;BME280;55906;52.278;6.808;2023-05-24T02:28:44;102234.34;;;9.69;70.61
68871;BME280;55906;52.278;6.808;2023-05-24T02:31:12;102229.00;;;9.68;70.94
68871;BME280;55906;52.278;6.808;2023-05-24T02:33:39;102234.25;;;9.68;71.13
68871;BME280;55906;52.278;6.808;2023-05-24T02:36:06;102226.28;;;9.66;71.37
68871;BME280;55906;52.278;6.808;2023-05-24T02:38:32;102229.81;;;9.67;71.11
68871;BME280;55906;52.278;6.808;2023-05-24T02:41:00;102228.84;;;9.65;70.97
68871;BME280;55906;52.278;6.808;2023-05-24T02:43:27;102232.38;;;9.65;71.01
68871;BME280;55906;52.278;6.808;2023-05-24T02:45:54;102225.16;;;9.61;71.39
68871;BME280;55906;52.278;6.808;2023-05-24T02:48:20;102226.22;;;9.65;71.48
68871;BME280;55906;52.278;6.808;2023-05-24T02:50:47;102228.03;;;9.66;71.36
68871;BME280;55906;52.278;6.808;2023-05-24T02:53:13;102225.47;;;9.67;71.83
68871;BME280;55906;52.278;6.808;2023-05-24T02:55:40;102229.00;;;9.68;71.60
68871;BME280;55906;52.278;6.808;2023-05-24T02:58:09;102233.44;;;9.69;71.74
68871;BME280;55906;52.278;6.808;2023-05-24T03:00:36;102235.06;;;9.67;71.41
68871;BME280;55906;52.278;6.808;2023-05-24T03:03:02;102233.19;;;9.64;71.77
68871;BME280;55906;52.278;6.808;2023-05-24T03:05:29;102227.03;;;9.63;71.64
68871;BME280;55906;52.278;6.808;2023-05-24T03:07:56;102222.44;;;9.59;71.95
68871;BME280;55906;52.278;6.808;2023-05-24T03:10:22;102227.63;;;9.58;72.30
68871;BME280;55906;52.278;6.808;2023-05-24T03:12:49;102233.53;;;9.54;72.27
68871;BME280;55906;52.278;6.808;2023-05-24T03:15:17;102229.03;;;9.51;72.69
68871;BME280;55906;52.278;6.808;2023-05-24T03:17:43;102224.53;;;9.49;72.41
68871;BME280;55906;52.278;6.808;2023-05-24T03:20:10;102228.63;;;9.44;72.47
68871;BME280;55906;52.278;6.808;2023-05-24T03:22:37;102230.19;;;9.40;72.89
68871;BME280;55906;52.278;6.808;2023-05-24T03:25:05;102227.50;;;9.39;72.69
68871;BME280;55906;52.278;6.808;2023-05-24T03:27:32;102226.44;;;9.35;73.65
68871;BME280;55906;52.278;6.808;2023-05-24T03:30:00;102229.88;;;9.34;73.37
68871;BME280;55906;52.278;6.808;2023-05-24T03:32:28;102222.00;;;9.34;73.79
68871;BME280;55906;52.278;6.808;2023-05-24T03:34:54;102222.81;;;9.33;73.63
68871;BME280;55906;52.278;6.808;2023-05-24T03:37:23;102225.28;;;9.30;74.20
68871;BME280;55906;52.278;6.808;2023-05-24T03:39:50;102226.44;;;9.35;73.96
68871;BME280;55906;52.278;6.808;2023-05-24T03:42:16;102227.66;;;9.42;73.45
68871;BME280;55906;52.278;6.808;2023-05-24T03:44:43;102230.34;;;9.43;74.06
68871;BME280;55906;52.278;6.808;2023-05-24T03:47:10;102227.16;;;9.49;74.10
68871;BME280;55906;52.278;6.808;2023-05-24T03:49:38;102225.59;;;9.52;73.93
68871;BME280;55906;52.278;6.808;2023-05-24T03:52:04;102223.03;;;9.54;74.33
68871;BME280;55906;52.278;6.808;2023-05-24T03:54:31;102228.44;;;9.57;74.17
68871;BME280;55906;52.278;6.808;2023-05-24T03:56:57;102223.94;;;9.54;74.11
68871;BME280;55906;52.278;6.808;2023-05-24T03:59:24;102231.97;;;9.57;74.18
68871;BME280;55906;52.278;6.808;2023-05-24T04:01:51;102234.91;;;9.63;74.15
68871;BME280;55906;52.278;6.808;2023-05-24T04:04:17;102226.53;;;9.71;74.16
68871;BME280;55906;52.278;6.808;2023-05-24T04:06:46;102222.63;;;9.80;73.61
68871;BME280;55906;52.278;6.808;2023-05-24T04:09:14;102223.78;;;9.85;74.04
68871;BME280;55906;52.278;6.808;2023-05-24T04:11:41;102233.84;;;9.94;73.74
68871;BME280;55906;52.278;6.808;2023-05-24T04:14:07;102228.97;;;10.02;73.43
68871;BME280;55906;52.278;6.808;2023-05-24T04:16:34;102217.88;;;10.07;73.60
68871;BME280;55906;52.278;6.808;2023-05-24T04:19:03;102227.63;;;10.10;73.81
68871;BME280;55906;52.278;6.808;2023-05-24T04:21:30;102228.84;;;10.16;74.27
68871;BME280;55906;52.278;6.808;2023-05-24T04:23:59;102238.03;;;10.24;73.50
68871;BME280;55906;52.278;6.808;2023-05-24T04:26:25;102236.53;;;10.30;73.75
68871;BME280;55906;52.278;6.808;2023-05-24T04:28:52;102233.38;;;10.37;74.16
68871;BME280;55906;52.278;6.808;2023-05-24T04:31:20;102226.03;;;10.47;73.47
68871;BME280;55906;52.278;6.808;2023-05-24T04:33:46;102221.81;;;10.51;73.78
68871;BME280;55906;52.278;6.808;2023-05-24T04:36:14;102218.66;;;10.58;73.20
68871;BME280;55906;52.278;6.808;2023-05-24T04:38:41;102226.06;;;10.67;72.84
68871;BME280;55906;52.278;6.808;2023-05-24T04:41:11;102222.06;;;10.75;73.04
68871;BME280;55906;52.278;6.808;2023-05-24T04:43:38;102227.47;;;10.78;73.03
68871;BME280;55906;52.278;6.808;2023-05-24T04:46:05;102225.34;;;10.88;72.48
68871;BME280;55906;52.278;6.808;2023-05-24T04:48:31;102217.59;;;10.92;72.83
68871;BME280;55906;52.278;6.808;2023-05-24T04:50:58;102220.44;;;10.96;72.61
68871;BME280;55906;52.278;6.808;2023-05-24T04:53:25;102225.00;;;11.00;72.27
68871;BME280;55906;52.278;6.808;2023-05-24T04:55:52;102235.41;;;10.97;72.23
68871;BME280;55906;52.278;6.808;2023-05-24T04:58:20;102229.38;;;11.00;71.92
68871;BME280;55906;52.278;6.808;2023-05-24T05:00:46;102234.63;;;11.00;71.81
68871;BME280;55906;52.278;6.808;2023-05-24T05:03:13;102224.88;;;10.97;71.96
68871;BME280;55906;52.278;6.808;2023-05-24T05:05:40;102218.56;;;10.94;71.81
68871;BME280;55906;52.278;6.808;2023-05-24T05:08:06;102223.69;;;10.90;71.98
68871;BME280;55906;52.278;6.808;2023-05-24T05:10:34;102215.72;;;10.89;71.97
68871;BME280;55906;52.278;6.808;2023-05-24T05:13:01;102235.72;;;10.85;72.25
68871;BME280;55906;52.278;6.808;2023-05-24T05:15:30;102233.94;;;10.84;72.53
68871;BME280;55906;52.278;6.808;2023-05-24T05:17:56;102231.09;;;10.80;72.61
68871;BME280;55906;52.278;6.808;2023-05-24T05:20:23;102233.03;;;10.84;72.63
68871;BME280;55906;52.278;6.808;2023-05-24T05:22:50;102241.63;;;10.80;73.05
68871;BME280;55906;52.278;6.808;2023-05-24T05:25:17;102250.78;;;10.88;72.53
68871;BME280;55906;52.278;6.808;2023-05-24T05:27:43;102247.25;;;10.87;73.04
68871;BME280;55906;52.278;6.808;2023-05-24T05:30:11;102245.84;;;10.96;72.63
68871;BME280;55906;52.278;6.808;2023-05-24T05:32:39;102251.34;;;11.00;71.98
68871;BME280;55906;52.278;6.808;2023-05-24T05:35:06;102259.38;;;11.03;72.59
68871;BME280;55906;52.278;6.808;2023-05-24T05:37:33;102257.03;;;11.09;71.97
68871;BME280;55906;52.278;6.808;2023-05-24T05:40:00;102252.94;;;11.16;71.80
68871;BME280;55906;52.278;6.808;2023-05-24T05:42:26;102252.75;;;11.31;71.59
68871;BME280;55906;52.278;6.808;2023-05-24T05:44:53;102249.63;;;11.39;71.90
68871;BME280;55906;52.278;6.808;2023-05-24T05:47:19;102246.63;;;11.51;71.76
68871;BME280;55906;52.278;6.808;2023-05-24T05:49:47;102253.06;;;11.58;71.33
68871;BME280;55906;52.278;6.808;2023-05-24T05:52:14;102262.34;;;11.69;71.24
68871;BME280;55906;52.278;6.808;2023-05-24T05:54:40;102249.69;;;11.79;71.04
68871;BME280;55906;52.278;6.808;2023-05-24T05:57:07;102260.97;;;11.96;70.45
68871;BME280;55906;52.278;6.808;2023-05-24T05:59:36;102263.47;;;12.14;70.45
68871;BME280;55906;52.278;6.808;2023-05-24T06:02:02;102265.59;;;12.23;70.07
68871;BME280;55906;52.278;6.808;2023-05-24T06:04:29;102263.72;;;12.41;69.55
68871;BME280;55906;52.278;6.808;2023-05-24T06:06:57;102262.53;;;12.55;69.52
68871;BME280;55906;52.278;6.808;2023-05-24T06:09:24;102247.28;;;12.70;68.86
68871;BME280;55906;52.278;6.808;2023-05-24T06:11:51;102245.97;;;12.81;68.31
68871;BME280;55906;52.278;6.808;2023-05-24T06:14:17;102241.03;;;12.91;68.17
68871;BME280;55906;52.278;6.808;2023-05-24T06:16:45;102246.50;;;12.95;67.63
68871;BME280;55906;52.278;6.808;2023-05-24T06:19:12;102247.22;;;13.13;67.72
68871;BME280;55906;52.278;6.808;2023-05-24T06:21:39;102256.53;;;13.26;67.07
68871;BME280;55906;52.278;6.808;2023-05-24T06:24:13;102245.84;;;13.47;67.02
68871;BME280;55906;52.278;6.808;2023-05-24T06:26:44;102250.69;;;13.59;66.42
68871;BME280;55906;52.278;6.808;2023-05-24T06:29:11;102253.94;;;13.75;65.73
68871;BME280;55906;52.278;6.808;2023-05-24T06:31:38;102253.97;;;13.77;65.35
68871;BME280;55906;52.278;6.808;2023-05-24T06:34:04;102249.28;;;13.94;64.75
68871;BME280;55906;52.278;6.808;2023-05-24T06:36:31;102255.78;;;14.03;64.44
68871;BME280;55906;52.278;6.808;2023-05-24T06:39:00;102254.28;;;14.12;63.87
68871;BME280;55906;52.278;6.808;2023-05-24T06:41:28;102257.88;;;14.14;63.39
68871;BME280;55906;52.278;6.808;2023-05-24T06:43:54;102259.19;;;14.26;62.68
68871;BME280;55906;52.278;6.808;2023-05-24T06:46:21;102262.94;;;14.31;62.82
68871;BME280;55906;52.278;6.808;2023-05-24T06:48:48;102255.13;;;14.36;62.10
68871;BME280;55906;52.278;6.808;2023-05-24T06:51:14;102256.97;;;14.38;61.58
68871;BME280;55906;52.278;6.808;2023-05-24T06:53:41;102256.50;;;14.25;62.31
68871;BME280;55906;52.278;6.808;2023-05-24T06:56:08;102253.16;;;14.56;61.38
68871;BME280;55906;52.278;6.808;2023-05-24T06:58:36;102253.06;;;14.53;61.45
68871;BME280;55906;52.278;6.808;2023-05-24T07:01:03;102246.31;;;14.62;61.21
68871;BME280;55906;52.278;6.808;2023-05-24T07:03:30;102252.50;;;14.63;60.52
68871;BME280;55906;52.278;6.808;2023-05-24T07:05:57;102255.53;;;14.47;59.86
68871;BME280;55906;52.278;6.808;2023-05-24T07:08:24;102269.31;;;14.63;60.77
68871;BME280;55906;52.278;6.808;2023-05-24T07:10:51;102257.25;;;14.73;60.10
68871;BME280;55906;52.278;6.808;2023-05-24T07:13:18;102255.25;;;14.94;59.45
68871;BME280;55906;52.278;6.808;2023-05-24T07:15:46;102266.97;;;15.02;59.28
68871;BME280;55906;52.278;6.808;2023-05-24T07:18:13;102267.13;;;15.07;59.02
68871;BME280;55906;52.278;6.808;2023-05-24T07:20:40;102263.69;;;15.11;59.16
68871;BME280;55906;52.278;6.808;2023-05-24T07:23:06;102260.94;;;15.38;57.80
68871;BME280;55906;52.278;6.808;2023-05-24T07:25:33;102264.47;;;15.37;57.86
68871;BME280;55906;52.278;6.808;2023-05-24T07:28:00;102260.56;;;15.56;57.16
68871;BME280;55906;52.278;6.808;2023-05-24T07:30:26;102264.03;;;15.53;56.04
68871;BME280;55906;52.278;6.808;2023-05-24T07:32:54;102259.41;;;15.46;55.99
68871;BME280;55906;52.278;6.808;2023-05-24T07:35:21;102263.22;;;15.24;56.09
68871;BME280;55906;52.278;6.808;2023-05-24T07:37:48;102262.19;;;15.51;56.53
68871;BME280;55906;52.278;6.808;2023-05-24T07:40:15;102259.00;;;15.61;56.01
68871;BME280;55906;52.278;6.808;2023-05-24T07:42:41;102272.00;;;15.53;55.79
68871;BME280;55906;52.278;6.808;2023-05-24T07:45:08;102269.50;;;15.58;54.84
68871;BME280;55906;52.278;6.808;2023-05-24T07:47:35;102273.84;;;15.56;55.10
68871;BME280;55906;52.278;6.808;2023-05-24T07:50:04;102273.75;;;15.53;55.28
68871;BME280;55906;52.278;6.808;2023-05-24T07:52:31;102268.00;;;15.66;54.82
68871;BME280;55906;52.278;6.808;2023-05-24T07:54:58;102275.56;;;15.84;54.55
68871;BME280;55906;52.278;6.808;2023-05-24T07:57:25;102256.50;;;15.98;53.94
68871;BME280;55906;52.278;6.808;2023-05-24T07:59:51;102256.25;;;15.89;53.61
68871;BME280;55906;52.278;6.808;2023-05-24T08:02:18;102263.31;;;15.89;54.30
68871;BME280;55906;52.278;6.808;2023-05-24T08:04:45;102264.88;;;16.15;53.56
68871;BME280;55906;52.278;6.808;2023-05-24T08:07:13;102256.22;;;16.22;53.73
68871;BME280;55906;52.278;6.808;2023-05-24T08:09:40;102255.59;;;16.32;53.28
68871;BME280;55906;52.278;6.808;2023-05-24T08:12:07;102248.34;;;16.27;52.47
68871;BME280;55906;52.278;6.808;2023-05-24T08:14:33;102248.47;;;16.31;52.42
68871;BME280;55906;52.278;6.808;2023-05-24T08:17:00;102247.16;;;16.50;52.03
68871;BME280;55906;52.278;6.808;2023-05-24T08:19:27;102245.66;;;16.61;52.01
68871;BME280;55906;52.278;6.808;2023-05-24T08:21:59;102254.56;;;16.27;52.62
68871;BME280;55906;52.278;6.808;2023-05-24T08:24:30;102252.81;;;16.28;52.64
68871;BME280;55906;52.278;6.808;2023-05-24T08:26:57;102258.75;;;16.18;52.36
68871;BME280;55906;52.278;6.808;2023-05-24T08:29:24;102251.66;;;16.17;51.87
68871;BME280;55906;52.278;6.808;2023-05-24T08:31:50;102253.78;;;16.31;51.89
68871;BME280;55906;52.278;6.808;2023-05-24T08:34:17;102257.50;;;16.38;51.11
68871;BME280;55906;52.278;6.808;2023-05-24T08:36:43;102257.25;;;16.29;51.96
68871;BME280;55906;52.278;6.808;2023-05-24T08:39:10;102260.06;;;16.35;50.92
68871;BME280;55906;52.278;6.808;2023-05-24T08:41:39;102252.41;;;16.47;50.48
68871;BME280;55906;52.278;6.808;2023-05-24T08:44:06;102261.25;;;16.48;50.21
68871;BME280;55906;52.278;6.808;2023-05-24T08:46:34;102253.22;;;16.45;51.01
68871;BME280;55906;52.278;6.808;2023-05-24T08:49:01;102262.31;;;16.54;49.58
68871;BME280;55906;52.278;6.808;2023-05-24T08:51:29;102252.53;;;16.53;50.41
68871;BME280;55906;52.278;6.808;2023-05-24T08:53:56;102258.59;;;16.48;50.37
68871;BME280;55906;52.278;6.808;2023-05-24T08:56:24;102264.81;;;16.48;50.75
68871;BME280;55906;52.278;6.808;2023-05-24T08:58:53;102270.91;;;16.44;49.59
68871;BME280;55906;52.278;6.808;2023-05-24T09:01:21;102259.88;;;16.63;49.83
68871;BME280;55906;52.278;6.808;2023-05-24T09:03:50;102255.84;;;16.79;48.74
68871;BME280;55906;52.278;6.808;2023-05-24T09:06:17;102255.00;;;16.82;48.63
68871;BME280;55906;52.278;6.808;2023-05-24T09:08:44;102256.47;;;17.07;48.71
68871;BME280;55906;52.278;6.808;2023-05-24T09:11:13;102254.25;;;17.26;48.10
68871;BME280;55906;52.278;6.808;2023-05-24T09:13:40;102252.56;;;17.32;48.02
68871;BME280;55906;52.278;6.808;2023-05-24T09:16:09;102259.13;;;17.49;48.04
68871;BME280;55906;52.278;6.808;2023-05-24T09:18:36;102263.09;;;17.25;46.97
68871;BME280;55906;52.278;6.808;2023-05-24T09:21:03;102263.06;;;17.24;47.91
68871;BME280;55906;52.278;6.808;2023-05-24T09:23:31;102260.03;;;17.49;47.24
68871;BME280;55906;52.278;6.808;2023-05-24T09:25:57;102261.59;;;17.40;47.20
68871;BME280;55906;52.278;6.808;2023-05-24T09:28:31;102261.03;;;17.56;47.58
68871;BME280;55906;52.278;6.808;2023-05-24T09:31:00;102251.81;;;17.82;47.31
68871;BME280;55906;52.278;6.808;2023-05-24T09:33:30;102251.25;;;18.00;46.97
68871;BME280;55906;52.278;6.808;2023-05-24T09:35:58;102254.63;;;17.90;46.60
68871;BME280;55906;52.278;6.808;2023-05-24T09:38:25;102255.28;;;17.78;45.83
68871;BME280;55906;52.278;6.808;2023-05-24T09:40:58;102248.41;;;17.89;46.50
68871;BME280;55906;52.278;6.808;2023-05-24T09:43:26;102248.66;;;18.05;46.69
68871;BME280;55906;52.278;6.808;2023-05-24T09:45:54;102248.44;;;17.92;46.95
68871;BME280;55906;52.278;6.808;2023-05-24T09:48:22;102260.69;;;17.38;47.64
68871;BME280;55906;52.278;6.808;2023-05-24T09:50:58;102259.75;;;17.36;46.03
68871;BME280;55906;52.278;6.808;2023-05-24T09:53:27;102264.56;;;17.11;47.54
68871;BME280;55906;52.278;6.808;2023-05-24T09:55:54;102260.59;;;17.33;47.25
68871;BME280;55906;52.278;6.808;2023-05-24T09:58:21;102265.97;;;17.36;46.81
68871;BME280;55906;52.278;6.808;2023-05-24T10:00:47;102258.78;;;17.32;46.87
68871;BME280;55906;52.278;6.808;2023-05-24T10:03:14;102255.19;;;17.30;47.14
68871;BME280;55906;52.278;6.808;2023-05-24T10:05:43;102258.81;;;17.34;47.13
68871;BME280;55906;52.278;6.808;2023-05-24T10:08:12;102264.69;;;17.17;47.31
68871;BME280;55906;52.278;6.808;2023-05-24T10:10:40;102258.88;;;16.94;47.46
68871;BME280;55906;52.278;6.808;2023-05-24T10:13:07;102255.44;;;17.00;47.59
68871;BME280;55906;52.278;6.808;2023-05-24T10:15:35;102255.19;;;16.89;47.44
68871;BME280;55906;52.278;6.808;2023-05-24T10:18:02;102254.25;;;16.87;47.41
68871;BME280;55906;52.278;6.808;2023-05-24T10:20:32;102265.50;;;16.76;47.81
68871;BME280;55906;52.278;6.808;2023-05-24T10:23:01;102272.47;;;16.71;48.13
68871;BME280;55906;52.278;6.808;2023-05-24T10:25:32;102269.03;;;16.75;48.38
68871;BME280;55906;52.278;6.808;2023-05-24T10:28:08;102278.66;;;16.70;48.25
68871;BME280;55906;52.278;6.808;2023-05-24T10:30:42;102274.31;;;16.73;48.03
68871;BME280;55906;52.278;6.808;2023-05-24T10:33:11;102278.00;;;16.80;47.77
68871;BME280;55906;52.278;6.808;2023-05-24T10:35:40;102289.75;;;16.53;48.72
68871;BME280;55906;52.278;6.808;2023-05-24T10:38:07;102289.38;;;16.38;48.65
68871;BME280;55906;52.278;6.808;2023-05-24T10:40:40;102282.91;;;16.64;48.25
68871;BME280;55906;52.278;6.808;2023-05-24T10:43:06;102278.56;;;16.67;48.31
68871;BME280;55906;52.278;6.808;2023-05-24T10:45:36;102276.53;;;16.56;48.59
68871;BME280;55906;52.278;6.808;2023-05-24T10:48:30;102277.78;;;16.71;48.70
68871;BME280;55906;52.278;6.808;2023-05-24T10:50:59;102282.00;;;16.62;48.68
68871;BME280;55906;52.278;6.808;2023-05-24T10:53:26;102283.53;;;16.89;48.15
68871;BME280;55906;52.278;6.808;2023-05-24T10:55:56;102281.97;;;16.97;48.10
68871;BME280;55906;52.278;6.808;2023-05-24T10:58:26;102270.97;;;16.82;47.79
68871;BME280;55906;52.278;6.808;2023-05-24T11:00:54;102283.53;;;16.89;47.94
68871;BME280;55906;52.278;6.808;2023-05-24T11:03:22;102268.59;;;17.35;46.80
68871;BME280;55906;52.278;6.808;2023-05-24T11:05:52;102276.03;;;17.51;46.24
68871;BME280;55906;52.278;6.808;2023-05-24T11:08:29;102264.97;;;17.73;44.98
68871;BME280;55906;52.278;6.808;2023-05-24T11:11:08;102270.59;;;17.90;45.25
68871;BME280;55906;52.278;6.808;2023-05-24T11:13:35;102262.34;;;17.76;46.03
68871;BME280;55906;52.278;6.808;2023-05-24T11:16:03;102260.97;;;17.98;45.75
68871;BME280;55906;52.278;6.808;2023-05-24T11:18:30;102266.44;;;18.06;44.81
68871;BME280;55906;52.278;6.808;2023-05-24T11:20:58;102256.91;;;18.20;45.46
68871;BME280;55906;52.278;6.808;2023-05-24T11:23:25;102264.28;;;18.33;45.25
68871;BME280;55906;52.278;6.808;2023-05-24T11:25:52;102260.03;;;18.44;45.12
68871;BME280;55906;52.278;6.808;2023-05-24T11:28:20;102265.59;;;18.60;44.88
68871;BME280;55906;52.278;6.808;2023-05-24T11:30:47;102256.53;;;18.48;44.92
68871;BME280;55906;52.278;6.808;2023-05-24T11:33:15;102261.28;;;18.66;44.69
68871;BME280;55906;52.278;6.808;2023-05-24T11:35:43;102257.66;;;18.61;44.58
68871;BME280;55906;52.278;6.808;2023-05-24T11:38:09;102257.06;;;18.82;43.63
68871;BME280;55906;52.278;6.808;2023-05-24T11:40:38;102257.19;;;18.91;44.30
68871;BME280;55906;52.278;6.808;2023-05-24T11:43:10;102261.81;;;19.03;44.29
68871;BME280;55906;52.278;6.808;2023-05-24T11:45:40;102261.22;;;19.27;43.47
68871;BME280;55906;52.278;6.808;2023-05-24T11:48:07;102259.94;;;19.64;43.42
68871;BME280;55906;52.278;6.808;2023-05-24T11:50:38;102255.75;;;19.89;42.68
68871;BME280;55906;52.278;6.808;2023-05-24T11:53:09;102256.69;;;19.94;41.83
68871;BME280;55906;52.278;6.808;2023-05-24T11:55:36;102252.00;;;19.70;42.46
68871;BME280;55906;52.278;6.808;2023-05-24T11:58:06;102257.78;;;20.17;42.70
68871;BME280;55906;52.278;6.808;2023-05-24T12:00:38;102248.00;;;20.16;40.89
68871;BME280;55906;52.278;6.808;2023-05-24T12:03:07;102259.03;;;20.56;40.92
68871;BME280;55906;52.278;6.808;2023-05-24T12:05:35;102253.91;;;20.86;38.67
68871;BME280;55906;52.278;6.808;2023-05-24T12:08:03;102248.56;;;20.91;40.50
68871;BME280;55906;52.278;6.808;2023-05-24T12:10:32;102251.38;;;21.15;39.72
68871;BME280;55906;52.278;6.808;2023-05-24T12:12:59;102254.00;;;21.07;38.22
68871;BME280;55906;52.278;6.808;2023-05-24T12:15:26;102257.75;;;21.40;39.01
68871;BME280;55906;52.278;6.808;2023-05-24T12:17:54;102247.81;;;21.19;37.86
68871;BME280;55906;52.278;6.808;2023-05-24T12:20:21;102248.84;;;21.43;37.82
68871;BME280;55906;52.278;6.808;2023-05-24T12:22:49;102245.34;;;21.74;37.84
68871;BME280;55906;52.278;6.808;2023-05-24T12:25:17;102241.84;;;22.02;36.85
68871;BME280;55906;52.278;6.808;2023-05-24T12:27:46;102240.91;;;21.99;37.46
68871;BME280;55906;52.278;6.808;2023-05-24T12:30:14;102241.78;;;21.86;36.72
68871;BME280;55906;52.278;6.808;2023-05-24T12:32:46;102241.84;;;22.10;37.20
68871;BME280;55906;52.278;6.808;2023-05-24T12:35:16;102244.56;;;22.12;36.62
68871;BME280;55906;52.278;6.808;2023-05-24T12:37:43;102234.63;;;21.72;38.26
68871;BME280;55906;52.278;6.808;2023-05-24T12:40:16;102236.44;;;21.83;37.36
68871;BME280;55906;52.278;6.808;2023-05-24T12:42:45;102227.53;;;22.03;36.15
68871;BME280;55906;52.278;6.808;2023-05-24T12:45:14;102231.13;;;22.47;36.38
68871;BME280;55906;52.278;6.808;2023-05-24T12:47:47;102229.97;;;23.44;35.61
68871;BME280;55906;52.278;6.808;2023-05-24T12:50:16;102215.78;;;24.46;33.99
68871;BME280;55906;52.278;6.808;2023-05-24T12:52:43;102215.50;;;24.76;33.33
68871;BME280;55906;52.278;6.808;2023-05-24T12:55:11;102213.13;;;25.24;32.88
68871;BME280;55906;52.278;6.808;2023-05-24T12:57:40;102208.75;;;25.80;31.09
68871;BME280;55906;52.278;6.808;2023-05-24T13:00:09;102208.47;;;25.98;30.25
68871;BME280;55906;52.278;6.808;2023-05-24T13:02:38;102206.09;;;25.77;31.95
68871;BME280;55906;52.278;6.808;2023-05-24T13:05:07;102215.44;;;25.51;31.69
68871;BME280;55906;52.278;6.808;2023-05-24T13:07:36;102215.25;;;24.96;33.02